sensor_id;sensor_type;location;lat;lon;timestamp;P1;durP1;ratioP1;P2;durP2;ratioP2
64669;SDS011;51080;51.690;5.174;2022-10-31T00:04:49;22.20;;;12.20;;
64669;SDS011;51080;51.690;5.174;2022-10-31T00:10:38;20.70;;;11.20;;
64669;SDS011;51080;51.690;5.174;2022-10-31T00:16:28;19.20;;;11.40;;
64669;SDS011;51080;51.690;5.174;2022-10-31T00:22:18;24.00;;;11.90;;
64669;SDS011;51080;51.690;5.174;2022-10-31T00:28:06;22.00;;;12.70;;
64669;SDS011;51080;51.690;5.174;2022-10-31T00:33:57;18.60;;;12.00;;
64669;SDS011;51080;51.690;5.174;2022-10-31T00:39:47;21.90;;;12.90;;
64669;SDS011;51080;51.690;5.174;2022-10-31T00:45:35;22.50;;;12.50;;
64669;SDS011;51080;51.690;5.174;2022-10-31T00:51:26;25.00;;;13.40;;
64669;SDS011;51080;51.690;5.174;2022-10-31T00:57:19;22.30;;;12.60;;
64669;SDS011;51080;51.690;5.174;2022-10-31T01:03:08;22.40;;;12.70;;
64669;SDS011;51080;51.690;5.174;2022-10-31T01:08:59;25.00;;;12.10;;
64669;SDS011;51080;51.690;5.174;2022-10-31T01:14:47;20.50;;;12.00;;
64669;SDS011;51080;51.690;5.174;2022-10-31T01:20:39;20.20;;;12.00;;
64669;SDS011;51080;51.690;5.174;2022-10-31T01:26:31;18.00;;;11.70;;
64669;SDS011;51080;51.690;5.174;2022-10-31T01:32:21;21.60;;;13.00;;
64669;SDS011;51080;51.690;5.174;2022-10-31T01:38:09;20.00;;;11.80;;
64669;SDS011;51080;51.690;5.174;2022-10-31T01:50:11;18.40;;;11.80;;
64669;SDS011;51080;51.690;5.174;2022-10-31T01:56:03;20.60;;;12.00;;
64669;SDS011;51080;51.690;5.174;2022-10-31T02:01:51;19.60;;;12.10;;
64669;SDS011;51080;51.690;5.174;2022-10-31T02:07:57;23.40;;;13.90;;
64669;SDS011;51080;51.690;5.174;2022-10-31T02:13:48;26.70;;;16.90;;
64669;SDS011;51080;51.690;5.174;2022-10-31T02:51:06;21.70;;;13.10;;
64669;SDS011;51080;51.690;5.174;2022-10-31T02:56:58;19.60;;;13.00;;
64669;SDS011;51080;51.690;5.174;2022-10-31T03:09:11;19.40;;;13.20;;
64669;SDS011;51080;51.690;5.174;2022-10-31T03:21:27;21.10;;;12.50;;
64669;SDS011;51080;51.690;5.174;2022-10-31T03:27:27;22.00;;;14.60;;
64669;SDS011;51080;51.690;5.174;2022-10-31T03:33:27;24.70;;;15.70;;
64669;SDS011;51080;51.690;5.174;2022-10-31T03:39:20;28.40;;;16.50;;
64669;SDS011;51080;51.690;5.174;2022-10-31T03:45:19;23.10;;;13.70;;
64669;SDS011;51080;51.690;5.174;2022-10-31T03:57:33;21.60;;;14.00;;
64669;SDS011;51080;51.690;5.174;2022-10-31T04:03:43;18.90;;;12.40;;
64669;SDS011;51080;51.690;5.174;2022-10-31T04:09:32;20.60;;;13.20;;
64669;SDS011;51080;51.690;5.174;2022-10-31T04:15:23;22.60;;;15.30;;
64669;SDS011;51080;51.690;5.174;2022-10-31T04:21:14;23.90;;;15.10;;
64669;SDS011;51080;51.690;5.174;2022-10-31T04:27:02;21.80;;;14.40;;
64669;SDS011;51080;51.690;5.174;2022-10-31T04:32:50;22.10;;;14.50;;
64669;SDS011;51080;51.690;5.174;2022-10-31T04:38:38;22.50;;;14.10;;
64669;SDS011;51080;51.690;5.174;2022-10-31T04:44:28;18.40;;;13.00;;
64669;SDS011;51080;51.690;5.174;2022-10-31T04:50:18;19.70;;;12.50;;
64669;SDS011;51080;51.690;5.174;2022-10-31T04:56:07;14.50;;;11.30;;
64669;SDS011;51080;51.690;5.174;2022-10-31T05:01:57;15.70;;;10.80;;
64669;SDS011;51080;51.690;5.174;2022-10-31T05:07:46;17.00;;;10.80;;
64669;SDS011;51080;51.690;5.174;2022-10-31T05:13:35;10.40;;;8.00;;
64669;SDS011;51080;51.690;5.174;2022-10-31T05:19:29;10.80;;;7.70;;
64669;SDS011;51080;51.690;5.174;2022-10-31T05:25:19;13.40;;;8.80;;
64669;SDS011;51080;51.690;5.174;2022-10-31T05:31:14;15.30;;;9.80;;
64669;SDS011;51080;51.690;5.174;2022-10-31T05:37:10;15.40;;;10.70;;
64669;SDS011;51080;51.690;5.174;2022-10-31T05:43:01;15.50;;;10.90;;
64669;SDS011;51080;51.690;5.174;2022-10-31T05:48:52;14.70;;;10.60;;
64669;SDS011;51080;51.690;5.174;2022-10-31T05:54:44;26.20;;;15.40;;
64669;SDS011;51080;51.690;5.174;2022-10-31T06:00:37;29.80;;;15.80;;
64669;SDS011;51080;51.690;5.174;2022-10-31T06:06:35;32.00;;;18.10;;
64669;SDS011;51080;51.690;5.174;2022-10-31T06:12:18;31.60;;;19.60;;
64669;SDS011;51080;51.690;5.174;2022-10-31T06:18:33;26.90;;;17.10;;
64669;SDS011;51080;51.690;5.174;2022-10-31T06:24:18;30.00;;;18.30;;
64669;SDS011;51080;51.690;5.174;2022-10-31T06:30:32;25.70;;;16.40;;
64669;SDS011;51080;51.690;5.174;2022-10-31T06:36:46;24.60;;;16.10;;
64669;SDS011;51080;51.690;5.174;2022-10-31T06:42:30;26.20;;;17.20;;
64669;SDS011;51080;51.690;5.174;2022-10-31T06:48:13;31.50;;;18.30;;
64669;SDS011;51080;51.690;5.174;2022-10-31T06:53:57;35.40;;;20.10;;
64669;SDS011;51080;51.690;5.174;2022-10-31T07:00:11;28.80;;;17.70;;
64669;SDS011;51080;51.690;5.174;2022-10-31T07:06:26;29.00;;;18.40;;
64669;SDS011;51080;51.690;5.174;2022-10-31T07:12:09;33.60;;;18.90;;
64669;SDS011;51080;51.690;5.174;2022-10-31T07:17:52;34.20;;;20.40;;
64669;SDS011;51080;51.690;5.174;2022-10-31T07:23:36;38.40;;;20.80;;
64669;SDS011;51080;51.690;5.174;2022-10-31T07:29:20;33.10;;;21.20;;
64669;SDS011;51080;51.690;5.174;2022-10-31T07:35:04;34.00;;;20.30;;
64669;SDS011;51080;51.690;5.174;2022-10-31T07:40:51;34.30;;;21.20;;
64669;SDS011;51080;51.690;5.174;2022-10-31T07:46:35;35.20;;;21.90;;
64669;SDS011;51080;51.690;5.174;2022-10-31T07:52:19;33.90;;;21.00;;
64669;SDS011;51080;51.690;5.174;2022-10-31T07:58:03;38.20;;;23.80;;
64669;SDS011;51080;51.690;5.174;2022-10-31T08:03:52;47.50;;;27.10;;
64669;SDS011;51080;51.690;5.174;2022-10-31T08:09:35;43.00;;;25.90;;
64669;SDS011;51080;51.690;5.174;2022-10-31T08:15:18;44.90;;;27.30;;
64669;SDS011;51080;51.690;5.174;2022-10-31T08:21:02;41.00;;;25.00;;
64669;SDS011;51080;51.690;5.174;2022-10-31T08:26:46;41.60;;;24.50;;
64669;SDS011;51080;51.690;5.174;2022-10-31T08:32:30;42.00;;;25.50;;
64669;SDS011;51080;51.690;5.174;2022-10-31T08:38:13;37.50;;;24.30;;
64669;SDS011;51080;51.690;5.174;2022-10-31T08:44:27;38.50;;;23.30;;
64669;SDS011;51080;51.690;5.174;2022-10-31T08:50:11;42.00;;;25.50;;
64669;SDS011;51080;51.690;5.174;2022-10-31T08:55:55;40.70;;;25.10;;
64669;SDS011;51080;51.690;5.174;2022-10-31T09:01:39;46.20;;;27.40;;
64669;SDS011;51080;51.690;5.174;2022-10-31T09:07:23;44.50;;;26.40;;
64669;SDS011;51080;51.690;5.174;2022-10-31T09:13:08;44.50;;;28.10;;
64669;SDS011;51080;51.690;5.174;2022-10-31T09:18:53;42.70;;;27.60;;
64669;SDS011;51080;51.690;5.174;2022-10-31T09:24:36;43.30;;;25.80;;
64669;SDS011;51080;51.690;5.174;2022-10-31T09:30:20;41.10;;;25.50;;
64669;SDS011;51080;51.690;5.174;2022-10-31T09:36:05;42.00;;;25.80;;
64669;SDS011;51080;51.690;5.174;2022-10-31T09:41:56;40.00;;;23.90;;
64669;SDS011;51080;51.690;5.174;2022-10-31T09:54:56;33.40;;;22.00;;
64669;SDS011;51080;51.690;5.174;2022-10-31T10:00:47;35.60;;;21.40;;
64669;SDS011;51080;51.690;5.174;2022-10-31T10:06:32;33.50;;;21.30;;
64669;SDS011;51080;51.690;5.174;2022-10-31T10:12:25;34.60;;;20.90;;
64669;SDS011;51080;51.690;5.174;2022-10-31T10:31:16;35.60;;;21.90;;
64669;SDS011;51080;51.690;5.174;2022-10-31T10:37:05;38.10;;;24.20;;
64669;SDS011;51080;51.690;5.174;2022-10-31T10:43:00;45.20;;;25.50;;
64669;SDS011;51080;51.690;5.174;2022-10-31T10:55:32;45.70;;;28.80;;
64669;SDS011;51080;51.690;5.174;2022-10-31T11:01:59;44.40;;;26.80;;
64669;SDS011;51080;51.690;5.174;2022-10-31T11:07:43;45.30;;;27.70;;
64669;SDS011;51080;51.690;5.174;2022-10-31T11:13:26;46.80;;;27.60;;
64669;SDS011;51080;51.690;5.174;2022-10-31T11:19:16;49.90;;;29.20;;
64669;SDS011;51080;51.690;5.174;2022-10-31T11:25:33;44.70;;;26.90;;
64669;SDS011;51080;51.690;5.174;2022-10-31T11:31:17;47.60;;;26.60;;
64669;SDS011;51080;51.690;5.174;2022-10-31T11:37:03;46.20;;;28.00;;
64669;SDS011;51080;51.690;5.174;2022-10-31T11:42:57;44.30;;;28.70;;
64669;SDS011;51080;51.690;5.174;2022-10-31T11:48:45;50.60;;;28.90;;
64669;SDS011;51080;51.690;5.174;2022-10-31T11:54:44;51.80;;;29.80;;
64669;SDS011;51080;51.690;5.174;2022-10-31T12:00:32;51.50;;;29.30;;
64669;SDS011;51080;51.690;5.174;2022-10-31T12:06:22;51.00;;;30.50;;
64669;SDS011;51080;51.690;5.174;2022-10-31T12:24:46;53.30;;;32.20;;
64669;SDS011;51080;51.690;5.174;2022-10-31T12:43:29;51.30;;;31.10;;
64669;SDS011;51080;51.690;5.174;2022-10-31T13:02:17;46.30;;;29.20;;
64669;SDS011;51080;51.690;5.174;2022-10-31T13:08:09;49.70;;;29.30;;
64669;SDS011;51080;51.690;5.174;2022-10-31T13:14:07;47.30;;;29.00;;
64669;SDS011;51080;51.690;5.174;2022-10-31T13:20:24;46.30;;;28.70;;
64669;SDS011;51080;51.690;5.174;2022-10-31T13:26:15;48.80;;;28.70;;
64669;SDS011;51080;51.690;5.174;2022-10-31T13:32:06;48.10;;;27.00;;
64669;SDS011;51080;51.690;5.174;2022-10-31T13:38:22;40.80;;;24.50;;
64669;SDS011;51080;51.690;5.174;2022-10-31T13:44:21;43.80;;;25.60;;
64669;SDS011;51080;51.690;5.174;2022-10-31T13:50:36;39.00;;;24.60;;
64669;SDS011;51080;51.690;5.174;2022-10-31T13:56:24;43.70;;;25.80;;
64669;SDS011;51080;51.690;5.174;2022-10-31T14:02:17;46.30;;;25.50;;
64669;SDS011;51080;51.690;5.174;2022-10-31T14:08:15;36.50;;;24.60;;
64669;SDS011;51080;51.690;5.174;2022-10-31T14:14:01;40.80;;;24.70;;
64669;SDS011;51080;51.690;5.174;2022-10-31T14:26:18;39.90;;;22.30;;
64669;SDS011;51080;51.690;5.174;2022-10-31T14:32:43;29.30;;;18.90;;
64669;SDS011;51080;51.690;5.174;2022-10-31T14:38:49;37.70;;;19.00;;
64669;SDS011;51080;51.690;5.174;2022-10-31T14:50:52;29.10;;;16.40;;
64669;SDS011;51080;51.690;5.174;2022-10-31T14:56:42;31.80;;;17.40;;
64669;SDS011;51080;51.690;5.174;2022-10-31T15:08:45;29.00;;;15.90;;
64669;SDS011;51080;51.690;5.174;2022-10-31T15:14:31;25.60;;;14.40;;
64669;SDS011;51080;51.690;5.174;2022-10-31T15:20:19;24.70;;;15.30;;
64669;SDS011;51080;51.690;5.174;2022-10-31T15:26:05;28.90;;;14.20;;
64669;SDS011;51080;51.690;5.174;2022-10-31T15:31:53;26.60;;;14.20;;
64669;SDS011;51080;51.690;5.174;2022-10-31T15:38:11;26.00;;;14.80;;
64669;SDS011;51080;51.690;5.174;2022-10-31T15:43:55;28.20;;;15.40;;
64669;SDS011;51080;51.690;5.174;2022-10-31T15:49:52;26.50;;;16.10;;
64669;SDS011;51080;51.690;5.174;2022-10-31T15:56:08;26.80;;;14.90;;
64669;SDS011;51080;51.690;5.174;2022-10-31T16:02:01;25.80;;;15.60;;
64669;SDS011;51080;51.690;5.174;2022-10-31T16:08:24;28.80;;;16.40;;
64669;SDS011;51080;51.690;5.174;2022-10-31T16:14:17;32.70;;;16.40;;
64669;SDS011;51080;51.690;5.174;2022-10-31T16:20:07;27.70;;;16.50;;
64669;SDS011;51080;51.690;5.174;2022-10-31T16:25:56;27.20;;;16.40;;
64669;SDS011;51080;51.690;5.174;2022-10-31T16:31:40;30.20;;;17.50;;
64669;SDS011;51080;51.690;5.174;2022-10-31T16:37:24;30.00;;;16.80;;
64669;SDS011;51080;51.690;5.174;2022-10-31T16:43:09;31.50;;;17.40;;
64669;SDS011;51080;51.690;5.174;2022-10-31T16:48:55;31.90;;;17.90;;
64669;SDS011;51080;51.690;5.174;2022-10-31T16:55:11;29.50;;;15.80;;
64669;SDS011;51080;51.690;5.174;2022-10-31T17:00:57;30.30;;;17.20;;
64669;SDS011;51080;51.690;5.174;2022-10-31T17:06:42;32.00;;;16.60;;
64669;SDS011;51080;51.690;5.174;2022-10-31T17:12:25;27.90;;;17.20;;
64669;SDS011;51080;51.690;5.174;2022-10-31T17:18:13;28.60;;;17.10;;
64669;SDS011;51080;51.690;5.174;2022-10-31T17:23:59;32.50;;;17.40;;
64669;SDS011;51080;51.690;5.174;2022-10-31T17:29:43;29.70;;;17.00;;
64669;SDS011;51080;51.690;5.174;2022-10-31T17:41:40;30.60;;;17.00;;
64669;SDS011;51080;51.690;5.174;2022-10-31T17:47:45;27.50;;;16.80;;
64669;SDS011;51080;51.690;5.174;2022-10-31T17:53:53;34.00;;;18.20;;
64669;SDS011;51080;51.690;5.174;2022-10-31T17:59:57;27.80;;;13.50;;
64669;SDS011;51080;51.690;5.174;2022-10-31T18:12:05;103.20;;;53.00;;
64669;SDS011;51080;51.690;5.174;2022-10-31T18:18:14;54.50;;;34.70;;
64669;SDS011;51080;51.690;5.174;2022-10-31T18:24:17;40.00;;;24.80;;
64669;SDS011;51080;51.690;5.174;2022-10-31T18:30:22;56.10;;;38.40;;
64669;SDS011;51080;51.690;5.174;2022-10-31T18:36:26;69.90;;;50.30;;
64669;SDS011;51080;51.690;5.174;2022-10-31T18:42:29;31.30;;;20.20;;
64669;SDS011;51080;51.690;5.174;2022-10-31T18:48:32;93.30;;;63.60;;
64669;SDS011;51080;51.690;5.174;2022-10-31T18:54:36;32.00;;;19.50;;
64669;SDS011;51080;51.690;5.174;2022-10-31T19:00:39;25.40;;;16.90;;
64669;SDS011;51080;51.690;5.174;2022-10-31T19:06:46;29.70;;;17.90;;
64669;SDS011;51080;51.690;5.174;2022-10-31T19:19:00;22.70;;;12.80;;
64669;SDS011;51080;51.690;5.174;2022-10-31T19:25:05;24.40;;;13.20;;
64669;SDS011;51080;51.690;5.174;2022-10-31T19:31:11;22.50;;;11.30;;
64669;SDS011;51080;51.690;5.174;2022-10-31T19:37:15;18.20;;;10.50;;
64669;SDS011;51080;51.690;5.174;2022-10-31T19:43:18;49.10;;;27.00;;
64669;SDS011;51080;51.690;5.174;2022-10-31T19:49:23;75.10;;;52.40;;
64669;SDS011;51080;51.690;5.174;2022-10-31T19:55:28;31.90;;;19.50;;
64669;SDS011;51080;51.690;5.174;2022-10-31T20:01:31;21.20;;;10.60;;
64669;SDS011;51080;51.690;5.174;2022-10-31T20:07:35;20.30;;;11.10;;
64669;SDS011;51080;51.690;5.174;2022-10-31T20:13:39;21.10;;;10.10;;
64669;SDS011;51080;51.690;5.174;2022-10-31T20:19:42;20.40;;;10.90;;
64669;SDS011;51080;51.690;5.174;2022-10-31T20:25:47;19.20;;;9.10;;
64669;SDS011;51080;51.690;5.174;2022-10-31T20:31:41;16.60;;;10.70;;
64669;SDS011;51080;51.690;5.174;2022-10-31T20:37:47;21.90;;;10.00;;
64669;SDS011;51080;51.690;5.174;2022-10-31T20:43:40;16.10;;;7.90;;
64669;SDS011;51080;51.690;5.174;2022-10-31T20:49:31;15.30;;;8.30;;
64669;SDS011;51080;51.690;5.174;2022-10-31T20:55:23;14.80;;;7.40;;
64669;SDS011;51080;51.690;5.174;2022-10-31T21:01:18;14.70;;;7.40;;
64669;SDS011;51080;51.690;5.174;2022-10-31T21:07:24;13.30;;;7.20;;
64669;SDS011;51080;51.690;5.174;2022-10-31T21:13:25;15.60;;;7.40;;
64669;SDS011;51080;51.690;5.174;2022-10-31T21:19:20;13.50;;;7.30;;
64669;SDS011;51080;51.690;5.174;2022-10-31T21:25:16;15.20;;;7.50;;
64669;SDS011;51080;51.690;5.174;2022-10-31T21:31:10;14.10;;;7.00;;
64669;SDS011;51080;51.690;5.174;2022-10-31T21:37:16;15.10;;;7.00;;
64669;SDS011;51080;51.690;5.174;2022-10-31T21:43:13;15.50;;;6.70;;
64669;SDS011;51080;51.690;5.174;2022-10-31T21:49:05;12.20;;;6.40;;
64669;SDS011;51080;51.690;5.174;2022-10-31T21:55:09;14.30;;;7.30;;
64669;SDS011;51080;51.690;5.174;2022-10-31T22:01:03;17.30;;;7.20;;
64669;SDS011;51080;51.690;5.174;2022-10-31T22:06:56;12.60;;;6.20;;
64669;SDS011;51080;51.690;5.174;2022-10-31T22:12:49;13.00;;;6.50;;
